YMAV 192215Z AUTO 29021G31KT 9999 // NCD 11/04 Q1010 RF00.0/000.0

Station Name: Melbourne Gliding Club - YBSS

Location: Parwan, VIC, Australia
Last Updated on Sep 20 2021, 7:41 am AEST
 
Wind Direction: North ** SUSPECT READING **
Wind Degrees: 360 ** SUSPECT READING **
Wind Speed (kts): 17
Wind 10 min AVG (kts): 20
Wind 10 min gust (kts): 30
Estimated Cloudbase (dewpoint) QNH : 3150 feet
Temperature (C): 9.7
Dewpoint (C): 4.4
Soil temp (C): 13.8
UV index: 0.0
.
Temperature HIGH (day): 11.8 at 12:00am
Temperature LOW (day): 8.3 at 6:00am
Humidity: 71% Feels like: 5.0
Barometer: 993.3 mb Rising Slowly
Solar radiation (W/m2): 281
------- .
Sunrise: 12:55am
Sunset: 1:08pm
Rain past 24hrs: 0 mm
Seaonal total: 210.1 mm
Soil temp (C): 13.8
Soil moisture* (cb): (1-4 use sealed areas, 10+ is dry)


TAF AMD YMAV 191911Z 1919/2018 28020G30KT 9999 SCT030 FM192300 27025G35KT 9999 -SHRA SCT030 FM200900 26015G25KT 9999 -SHRA SCT020 FM201200 24014KT 9999 -SHRA BKN020 INTER 2003/2009 27030G45KT 4000 SHRAGS BKN015 SCT030TCU INTER 2013/2018 4000 SHRAGS BKN015

YMAV 192215Z AUTO 29021G31KT 9999 // NCD 11/04 Q1010 RF00.0/000.0